YCLY weather

Coleambally Airport
New South Wales, Australia

Public forecast

Using degrees Celsius for public forecast. Weather courtesy of forecast.io.

METAR (pilot weather report)

Closest report is Narrandera Airport, 33.2 nm (61.5 km) E. Retrieved 2019/03/26 22:00 UTC (16 minutes ago):

YNAR 262200Z AUTO 15001KT 9999 // NCD 13/05 Q1024

TAF (pilot weather forecast)

Forecast is more than 12 hours old.

Closest forecast is Wagga Wagga City Airport, 82.5 nm (152.7 km) ESE. Retrieved 2018/05/25 18:03 UTC (10 months ago):

TAF YSWG 251649Z 2518/2608 07008KT CAVOK